Terminal Aerodrome Forecast
Issued by NWS Blacksburg, VA

Home | Current Version | Previous Version | Text Only | Print | Product List | Glossary On
Versions: 1 2 3 4 5 6 7 8 9 10 11 12 13 14 15 16
000
FTUS41 KRNK 311723
TAFLYH
TAF
KLYH 311723Z 3118/0118 VRB03KT P6SM OVC050
     FM010100 00000KT 4SM -RA BR OVC025
     FM010600 03008KT 3SM -RA BR OVC015
     FM011500 01009KT P6SM OVC025=

USA.gov is the U.S. government's official web portal to all federal, state and local government web resources and services.